sensor_id;sensor_type;location;lat;lon;timestamp;P1;durP1;ratioP1;P2;durP2;ratioP2
12141;SDS011;6134;59.284;18.022;2023-05-10T00:00:58;7.55;;;4.45;;
12141;SDS011;6134;59.284;18.022;2023-05-10T00:03:26;7.88;;;4.50;;
12141;SDS011;6134;59.284;18.022;2023-05-10T00:05:55;5.82;;;4.50;;
12141;SDS011;6134;59.284;18.022;2023-05-10T00:08:24;9.68;;;4.70;;
12141;SDS011;6134;59.284;18.022;2023-05-10T00:10:54;7.07;;;4.28;;
12141;SDS011;6134;59.284;18.022;2023-05-10T00:13:23;5.45;;;4.55;;
12141;SDS011;6134;59.284;18.022;2023-05-10T00:15:52;7.95;;;4.68;;
12141;SDS011;6134;59.284;18.022;2023-05-10T00:18:21;9.45;;;4.45;;
12141;SDS011;6134;59.284;18.022;2023-05-10T00:20:50;6.30;;;4.43;;
12141;SDS011;6134;59.284;18.022;2023-05-10T00:23:19;6.82;;;4.32;;
12141;SDS011;6134;59.284;18.022;2023-05-10T00:25:48;6.55;;;4.57;;
12141;SDS011;6134;59.284;18.022;2023-05-10T00:28:18;7.47;;;4.70;;
12141;SDS011;6134;59.284;18.022;2023-05-10T00:30:46;6.38;;;4.53;;
12141;SDS011;6134;59.284;18.022;2023-05-10T00:33:15;7.88;;;5.20;;
12141;SDS011;6134;59.284;18.022;2023-05-10T00:35:44;5.80;;;4.68;;
12141;SDS011;6134;59.284;18.022;2023-05-10T00:38:14;5.07;;;4.45;;
12141;SDS011;6134;59.284;18.022;2023-05-10T00:40:43;8.10;;;4.75;;
12141;SDS011;6134;59.284;18.022;2023-05-10T00:43:20;5.38;;;4.32;;
12141;SDS011;6134;59.284;18.022;2023-05-10T00:45:49;7.65;;;5.00;;
12141;SDS011;6134;59.284;18.022;2023-05-10T00:48:18;8.15;;;5.15;;
12141;SDS011;6134;59.284;18.022;2023-05-10T00:50:47;7.53;;;5.03;;
12141;SDS011;6134;59.284;18.022;2023-05-10T00:53:15;7.63;;;4.93;;
12141;SDS011;6134;59.284;18.022;2023-05-10T00:55:44;6.82;;;4.70;;
12141;SDS011;6134;59.284;18.022;2023-05-10T00:58:13;9.27;;;4.78;;
12141;SDS011;6134;59.284;18.022;2023-05-10T01:00:44;6.25;;;4.30;;
12141;SDS011;6134;59.284;18.022;2023-05-10T01:03:15;7.60;;;4.88;;
12141;SDS011;6134;59.284;18.022;2023-05-10T01:05:43;6.38;;;4.70;;
12141;SDS011;6134;59.284;18.022;2023-05-10T01:08:12;6.45;;;4.53;;
12141;SDS011;6134;59.284;18.022;2023-05-10T01:10:42;7.57;;;4.55;;
12141;SDS011;6134;59.284;18.022;2023-05-10T01:13:11;7.97;;;4.25;;
12141;SDS011;6134;59.284;18.022;2023-05-10T01:15:40;7.38;;;4.53;;
12141;SDS011;6134;59.284;18.022;2023-05-10T01:18:10;8.45;;;4.47;;
12141;SDS011;6134;59.284;18.022;2023-05-10T01:20:40;5.93;;;4.45;;
12141;SDS011;6134;59.284;18.022;2023-05-10T01:23:21;5.93;;;4.88;;
12141;SDS011;6134;59.284;18.022;2023-05-10T01:25:59;6.68;;;4.43;;
12141;SDS011;6134;59.284;18.022;2023-05-10T01:28:38;5.13;;;4.40;;
12141;SDS011;6134;59.284;18.022;2023-05-10T01:31:13;5.15;;;4.65;;
12141;SDS011;6134;59.284;18.022;2023-05-10T01:33:48;9.68;;;4.38;;
12141;SDS011;6134;59.284;18.022;2023-05-10T01:36:19;7.25;;;4.63;;
12141;SDS011;6134;59.284;18.022;2023-05-10T01:38:53;7.60;;;4.78;;
12141;SDS011;6134;59.284;18.022;2023-05-10T01:41:24;11.40;;;4.78;;
12141;SDS011;6134;59.284;18.022;2023-05-10T01:43:57;6.03;;;4.50;;
12141;SDS011;6134;59.284;18.022;2023-05-10T01:46:27;6.00;;;4.95;;
12141;SDS011;6134;59.284;18.022;2023-05-10T01:48:58;6.13;;;4.65;;
12141;SDS011;6134;59.284;18.022;2023-05-10T01:51:31;6.10;;;4.57;;
12141;SDS011;6134;59.284;18.022;2023-05-10T01:54:04;6.70;;;5.15;;
12141;SDS011;6134;59.284;18.022;2023-05-10T01:56:34;8.98;;;4.90;;
12141;SDS011;6134;59.284;18.022;2023-05-10T01:59:04;7.85;;;4.72;;
12141;SDS011;6134;59.284;18.022;2023-05-10T02:01:34;5.78;;;4.30;;
12141;SDS011;6134;59.284;18.022;2023-05-10T02:04:05;6.50;;;5.18;;
12141;SDS011;6134;59.284;18.022;2023-05-10T02:06:36;6.88;;;4.82;;
12141;SDS011;6134;59.284;18.022;2023-05-10T02:09:05;6.38;;;4.47;;
12141;SDS011;6134;59.284;18.022;2023-05-10T02:11:35;4.60;;;4.20;;
12141;SDS011;6134;59.284;18.022;2023-05-10T02:14:06;5.90;;;5.03;;
12141;SDS011;6134;59.284;18.022;2023-05-10T02:16:36;8.23;;;5.45;;
12141;SDS011;6134;59.284;18.022;2023-05-10T02:19:07;7.13;;;4.40;;
12141;SDS011;6134;59.284;18.022;2023-05-10T02:21:37;9.32;;;6.15;;
12141;SDS011;6134;59.284;18.022;2023-05-10T02:24:06;7.53;;;5.07;;
12141;SDS011;6134;59.284;18.022;2023-05-10T02:26:36;7.22;;;4.93;;
12141;SDS011;6134;59.284;18.022;2023-05-10T02:29:06;6.35;;;4.95;;
12141;SDS011;6134;59.284;18.022;2023-05-10T02:31:35;7.18;;;5.22;;
12141;SDS011;6134;59.284;18.022;2023-05-10T02:34:05;6.00;;;5.22;;
12141;SDS011;6134;59.284;18.022;2023-05-10T02:36:36;6.90;;;4.72;;
12141;SDS011;6134;59.284;18.022;2023-05-10T02:39:05;5.75;;;5.15;;
12141;SDS011;6134;59.284;18.022;2023-05-10T02:41:36;8.48;;;5.40;;
12141;SDS011;6134;59.284;18.022;2023-05-10T02:44:07;9.00;;;5.22;;
12141;SDS011;6134;59.284;18.022;2023-05-10T02:46:37;7.85;;;5.78;;
12141;SDS011;6134;59.284;18.022;2023-05-10T02:49:06;8.05;;;5.68;;
12141;SDS011;6134;59.284;18.022;2023-05-10T02:51:37;6.35;;;5.13;;
12141;SDS011;6134;59.284;18.022;2023-05-10T02:54:10;6.32;;;5.70;;
12141;SDS011;6134;59.284;18.022;2023-05-10T02:56:40;7.13;;;5.50;;
12141;SDS011;6134;59.284;18.022;2023-05-10T02:59:10;6.95;;;5.35;;
12141;SDS011;6134;59.284;18.022;2023-05-10T03:01:39;6.25;;;5.43;;
12141;SDS011;6134;59.284;18.022;2023-05-10T03:04:08;7.45;;;5.25;;
12141;SDS011;6134;59.284;18.022;2023-05-10T03:06:38;6.53;;;5.82;;
12141;SDS011;6134;59.284;18.022;2023-05-10T03:09:07;8.80;;;5.45;;
12141;SDS011;6134;59.284;18.022;2023-05-10T03:11:39;9.20;;;5.40;;
12141;SDS011;6134;59.284;18.022;2023-05-10T03:14:16;8.30;;;5.30;;
12141;SDS011;6134;59.284;18.022;2023-05-10T03:16:47;7.97;;;5.78;;
12141;SDS011;6134;59.284;18.022;2023-05-10T03:19:21;7.63;;;5.53;;
12141;SDS011;6134;59.284;18.022;2023-05-10T03:21:53;6.63;;;5.35;;
12141;SDS011;6134;59.284;18.022;2023-05-10T03:24:23;6.18;;;5.10;;
12141;SDS011;6134;59.284;18.022;2023-05-10T03:26:58;5.95;;;5.13;;
12141;SDS011;6134;59.284;18.022;2023-05-10T03:29:31;8.77;;;6.22;;
12141;SDS011;6134;59.284;18.022;2023-05-10T03:32:00;7.25;;;5.28;;
12141;SDS011;6134;59.284;18.022;2023-05-10T03:34:30;8.20;;;6.00;;
12141;SDS011;6134;59.284;18.022;2023-05-10T03:37:00;6.15;;;5.45;;
12141;SDS011;6134;59.284;18.022;2023-05-10T03:39:31;7.57;;;5.53;;
12141;SDS011;6134;59.284;18.022;2023-05-10T03:42:00;8.10;;;5.85;;
12141;SDS011;6134;59.284;18.022;2023-05-10T03:44:29;9.38;;;6.10;;
12141;SDS011;6134;59.284;18.022;2023-05-10T03:46:59;9.15;;;4.90;;
12141;SDS011;6134;59.284;18.022;2023-05-10T03:49:28;7.60;;;5.00;;
12141;SDS011;6134;59.284;18.022;2023-05-10T03:51:58;8.05;;;5.00;;
12141;SDS011;6134;59.284;18.022;2023-05-10T03:54:28;7.82;;;5.55;;
12141;SDS011;6134;59.284;18.022;2023-05-10T03:56:57;7.28;;;5.68;;
12141;SDS011;6134;59.284;18.022;2023-05-10T03:59:26;8.85;;;5.18;;
12141;SDS011;6134;59.284;18.022;2023-05-10T04:01:56;6.72;;;5.90;;
12141;SDS011;6134;59.284;18.022;2023-05-10T04:04:25;8.25;;;5.65;;
12141;SDS011;6134;59.284;18.022;2023-05-10T04:06:53;8.15;;;5.60;;
12141;SDS011;6134;59.284;18.022;2023-05-10T04:09:22;7.60;;;5.35;;
12141;SDS011;6134;59.284;18.022;2023-05-10T04:11:53;7.90;;;4.68;;
12141;SDS011;6134;59.284;18.022;2023-05-10T04:14:21;5.70;;;5.18;;
12141;SDS011;6134;59.284;18.022;2023-05-10T04:16:50;13.80;;;5.88;;
12141;SDS011;6134;59.284;18.022;2023-05-10T04:19:19;7.38;;;5.50;;
12141;SDS011;6134;59.284;18.022;2023-05-10T04:21:48;7.10;;;4.93;;
12141;SDS011;6134;59.284;18.022;2023-05-10T04:24:16;7.93;;;5.10;;
12141;SDS011;6134;59.284;18.022;2023-05-10T04:26:45;7.68;;;4.63;;
12141;SDS011;6134;59.284;18.022;2023-05-10T04:29:15;9.50;;;5.25;;
12141;SDS011;6134;59.284;18.022;2023-05-10T04:31:44;18.13;;;5.18;;
12141;SDS011;6134;59.284;18.022;2023-05-10T04:34:13;11.55;;;4.88;;
12141;SDS011;6134;59.284;18.022;2023-05-10T04:36:41;6.47;;;4.78;;
12141;SDS011;6134;59.284;18.022;2023-05-10T04:39:10;5.70;;;4.30;;
12141;SDS011;6134;59.284;18.022;2023-05-10T04:41:40;4.72;;;4.32;;
12141;SDS011;6134;59.284;18.022;2023-05-10T04:44:09;7.07;;;3.92;;
12141;SDS011;6134;59.284;18.022;2023-05-10T04:46:39;6.43;;;4.03;;
12141;SDS011;6134;59.284;18.022;2023-05-10T04:49:08;5.30;;;4.15;;
12141;SDS011;6134;59.284;18.022;2023-05-10T04:51:37;6.50;;;4.05;;
12141;SDS011;6134;59.284;18.022;2023-05-10T04:54:06;6.82;;;4.50;;
12141;SDS011;6134;59.284;18.022;2023-05-10T04:56:34;7.20;;;3.60;;
12141;SDS011;6134;59.284;18.022;2023-05-10T04:59:03;6.30;;;4.20;;
12141;SDS011;6134;59.284;18.022;2023-05-10T05:01:32;8.75;;;3.83;;
12141;SDS011;6134;59.284;18.022;2023-05-10T05:04:02;5.47;;;3.38;;
12141;SDS011;6134;59.284;18.022;2023-05-10T05:06:31;5.97;;;3.53;;
12141;SDS011;6134;59.284;18.022;2023-05-10T05:09:00;7.68;;;4.20;;
12141;SDS011;6134;59.284;18.022;2023-05-10T05:11:29;5.47;;;3.45;;
12141;SDS011;6134;59.284;18.022;2023-05-10T05:13:58;6.28;;;3.70;;
12141;SDS011;6134;59.284;18.022;2023-05-10T05:16:26;4.47;;;3.45;;
12141;SDS011;6134;59.284;18.022;2023-05-10T05:18:55;6.60;;;3.53;;
12141;SDS011;6134;59.284;18.022;2023-05-10T05:21:26;4.65;;;3.50;;
12141;SDS011;6134;59.284;18.022;2023-05-10T05:23:55;4.93;;;3.67;;
12141;SDS011;6134;59.284;18.022;2023-05-10T05:26:24;5.35;;;3.50;;
12141;SDS011;6134;59.284;18.022;2023-05-10T05:28:52;7.20;;;3.20;;
12141;SDS011;6134;59.284;18.022;2023-05-10T05:31:21;5.63;;;3.80;;
12141;SDS011;6134;59.284;18.022;2023-05-10T05:33:50;10.00;;;3.78;;
12141;SDS011;6134;59.284;18.022;2023-05-10T05:36:18;7.18;;;3.50;;
12141;SDS011;6134;59.284;18.022;2023-05-10T05:38:48;4.75;;;3.10;;
12141;SDS011;6134;59.284;18.022;2023-05-10T05:41:17;4.80;;;3.08;;
12141;SDS011;6134;59.284;18.022;2023-05-10T05:43:46;7.43;;;3.60;;
12141;SDS011;6134;59.284;18.022;2023-05-10T05:46:15;4.55;;;3.20;;
12141;SDS011;6134;59.284;18.022;2023-05-10T05:48:44;4.45;;;3.30;;
12141;SDS011;6134;59.284;18.022;2023-05-10T05:51:12;6.32;;;3.70;;
12141;SDS011;6134;59.284;18.022;2023-05-10T05:53:41;3.70;;;3.30;;
12141;SDS011;6134;59.284;18.022;2023-05-10T05:56:12;5.65;;;3.08;;
12141;SDS011;6134;59.284;18.022;2023-05-10T05:58:41;6.38;;;3.00;;
12141;SDS011;6134;59.284;18.022;2023-05-10T06:01:11;4.25;;;3.30;;
12141;SDS011;6134;59.284;18.022;2023-05-10T06:03:40;7.72;;;3.40;;
12141;SDS011;6134;59.284;18.022;2023-05-10T06:06:09;8.57;;;2.90;;
12141;SDS011;6134;59.284;18.022;2023-05-10T06:08:39;7.63;;;3.17;;
12141;SDS011;6134;59.284;18.022;2023-05-10T06:11:07;5.25;;;3.30;;
12141;SDS011;6134;59.284;18.022;2023-05-10T06:13:37;10.73;;;3.42;;
12141;SDS011;6134;59.284;18.022;2023-05-10T06:16:06;5.25;;;3.30;;
12141;SDS011;6134;59.284;18.022;2023-05-10T06:18:35;5.30;;;2.90;;
12141;SDS011;6134;59.284;18.022;2023-05-10T06:21:04;4.63;;;3.20;;
12141;SDS011;6134;59.284;18.022;2023-05-10T06:23:33;7.55;;;3.05;;
12141;SDS011;6134;59.284;18.022;2023-05-10T06:26:02;8.35;;;3.63;;
12141;SDS011;6134;59.284;18.022;2023-05-10T06:28:30;5.28;;;2.92;;
12141;SDS011;6134;59.284;18.022;2023-05-10T06:31:01;4.25;;;3.40;;
12141;SDS011;6134;59.284;18.022;2023-05-10T06:33:30;6.43;;;3.40;;
12141;SDS011;6134;59.284;18.022;2023-05-10T06:35:59;5.65;;;3.20;;
12141;SDS011;6134;59.284;18.022;2023-05-10T06:38:28;7.40;;;3.20;;
12141;SDS011;6134;59.284;18.022;2023-05-10T06:40:57;5.07;;;3.28;;
12141;SDS011;6134;59.284;18.022;2023-05-10T06:43:26;6.72;;;3.17;;
12141;SDS011;6134;59.284;18.022;2023-05-10T06:45:55;3.92;;;3.00;;
12141;SDS011;6134;59.284;18.022;2023-05-10T06:48:25;7.22;;;3.58;;
12141;SDS011;6134;59.284;18.022;2023-05-10T06:50:54;5.68;;;3.85;;
12141;SDS011;6134;59.284;18.022;2023-05-10T06:53:23;6.22;;;3.05;;
12141;SDS011;6134;59.284;18.022;2023-05-10T06:55:52;6.40;;;3.03;;
12141;SDS011;6134;59.284;18.022;2023-05-10T06:58:20;8.45;;;2.92;;
12141;SDS011;6134;59.284;18.022;2023-05-10T07:00:50;4.32;;;2.90;;
12141;SDS011;6134;59.284;18.022;2023-05-10T07:03:19;5.38;;;2.60;;
12141;SDS011;6134;59.284;18.022;2023-05-10T07:05:49;9.13;;;3.08;;
12141;SDS011;6134;59.284;18.022;2023-05-10T07:08:18;4.80;;;3.00;;
12141;SDS011;6134;59.284;18.022;2023-05-10T07:10:46;6.05;;;3.03;;
12141;SDS011;6134;59.284;18.022;2023-05-10T07:13:15;5.70;;;2.72;;
12141;SDS011;6134;59.284;18.022;2023-05-10T07:15:44;7.03;;;3.25;;
12141;SDS011;6134;59.284;18.022;2023-05-10T07:18:13;5.53;;;2.78;;
12141;SDS011;6134;59.284;18.022;2023-05-10T07:20:42;7.95;;;2.83;;
12141;SDS011;6134;59.284;18.022;2023-05-10T07:23:12;3.45;;;3.05;;
12141;SDS011;6134;59.284;18.022;2023-05-10T07:25:41;3.58;;;2.72;;
12141;SDS011;6134;59.284;18.022;2023-05-10T07:28:10;4.32;;;3.33;;
12141;SDS011;6134;59.284;18.022;2023-05-10T07:30:39;4.10;;;2.60;;
12141;SDS011;6134;59.284;18.022;2023-05-10T07:33:07;5.03;;;3.35;;
12141;SDS011;6134;59.284;18.022;2023-05-10T07:35:36;3.15;;;2.70;;
12141;SDS011;6134;59.284;18.022;2023-05-10T07:38:05;7.72;;;2.42;;
12141;SDS011;6134;59.284;18.022;2023-05-10T07:40:36;5.63;;;2.80;;
12141;SDS011;6134;59.284;18.022;2023-05-10T07:43:05;4.63;;;2.78;;
12141;SDS011;6134;59.284;18.022;2023-05-10T07:45:33;4.80;;;2.85;;
12141;SDS011;6134;59.284;18.022;2023-05-10T07:48:02;4.28;;;2.95;;
12141;SDS011;6134;59.284;18.022;2023-05-10T07:50:31;5.65;;;3.05;;
12141;SDS011;6134;59.284;18.022;2023-05-10T07:53:00;7.28;;;2.72;;
12141;SDS011;6134;59.284;18.022;2023-05-10T07:55:29;6.55;;;2.67;;
12141;SDS011;6134;59.284;18.022;2023-05-10T07:57:59;7.97;;;2.80;;
12141;SDS011;6134;59.284;18.022;2023-05-10T08:00:28;4.25;;;2.90;;
12141;SDS011;6134;59.284;18.022;2023-05-10T08:02:57;4.57;;;2.67;;
12141;SDS011;6134;59.284;18.022;2023-05-10T08:05:26;6.78;;;2.78;;
12141;SDS011;6134;59.284;18.022;2023-05-10T08:07:55;4.70;;;2.80;;
12141;SDS011;6134;59.284;18.022;2023-05-10T08:10:24;3.95;;;3.03;;
12141;SDS011;6134;59.284;18.022;2023-05-10T08:12:53;6.85;;;2.60;;
12141;SDS011;6134;59.284;18.022;2023-05-10T08:15:23;4.38;;;3.17;;
12141;SDS011;6134;59.284;18.022;2023-05-10T08:17:51;6.15;;;2.63;;
12141;SDS011;6134;59.284;18.022;2023-05-10T08:20:21;6.78;;;2.63;;
12141;SDS011;6134;59.284;18.022;2023-05-10T08:22:49;3.53;;;3.00;;
12141;SDS011;6134;59.284;18.022;2023-05-10T08:25:18;5.60;;;3.03;;
12141;SDS011;6134;59.284;18.022;2023-05-10T08:27:47;5.05;;;2.55;;
12141;SDS011;6134;59.284;18.022;2023-05-10T08:30:16;2.85;;;2.65;;
12141;SDS011;6134;59.284;18.022;2023-05-10T08:32:46;5.95;;;2.75;;
12141;SDS011;6134;59.284;18.022;2023-05-10T08:35:15;3.83;;;3.40;;
12141;SDS011;6134;59.284;18.022;2023-05-10T08:37:44;5.55;;;2.85;;
12141;SDS011;6134;59.284;18.022;2023-05-10T08:40:13;3.78;;;2.88;;
12141;SDS011;6134;59.284;18.022;2023-05-10T08:42:43;4.38;;;3.10;;
12141;SDS011;6134;59.284;18.022;2023-05-10T08:45:13;6.22;;;3.05;;
12141;SDS011;6134;59.284;18.022;2023-05-10T08:47:44;3.08;;;2.78;;
12141;SDS011;6134;59.284;18.022;2023-05-10T08:50:15;4.85;;;3.40;;
12141;SDS011;6134;59.284;18.022;2023-05-10T08:52:45;4.97;;;2.90;;
12141;SDS011;6134;59.284;18.022;2023-05-10T08:55:15;3.85;;;2.85;;
12141;SDS011;6134;59.284;18.022;2023-05-10T08:57:44;5.97;;;2.80;;
12141;SDS011;6134;59.284;18.022;2023-05-10T09:00:13;9.25;;;2.97;;
12141;SDS011;6134;59.284;18.022;2023-05-10T09:02:42;4.93;;;2.75;;
12141;SDS011;6134;59.284;18.022;2023-05-10T09:05:12;4.97;;;2.80;;
12141;SDS011;6134;59.284;18.022;2023-05-10T09:07:44;3.90;;;2.60;;
12141;SDS011;6134;59.284;18.022;2023-05-10T09:10:13;4.72;;;3.30;;
12141;SDS011;6134;59.284;18.022;2023-05-10T09:12:41;3.78;;;2.95;;
12141;SDS011;6134;59.284;18.022;2023-05-10T09:15:12;4.95;;;3.00;;
12141;SDS011;6134;59.284;18.022;2023-05-10T09:17:46;4.88;;;2.80;;
12141;SDS011;6134;59.284;18.022;2023-05-10T09:20:15;4.82;;;3.05;;
12141;SDS011;6134;59.284;18.022;2023-05-10T09:22:46;3.30;;;2.70;;
12141;SDS011;6134;59.284;18.022;2023-05-10T09:25:15;3.47;;;2.85;;
12141;SDS011;6134;59.284;18.022;2023-05-10T09:27:45;4.22;;;2.90;;
12141;SDS011;6134;59.284;18.022;2023-05-10T09:30:15;4.90;;;3.20;;
12141;SDS011;6134;59.284;18.022;2023-05-10T09:32:44;6.35;;;3.30;;
12141;SDS011;6134;59.284;18.022;2023-05-10T09:35:14;5.07;;;3.00;;
12141;SDS011;6134;59.284;18.022;2023-05-10T09:37:44;6.50;;;3.63;;
12141;SDS011;6134;59.284;18.022;2023-05-10T09:40:16;3.10;;;2.80;;
12141;SDS011;6134;59.284;18.022;2023-05-10T09:42:51;7.57;;;3.10;;
12141;SDS011;6134;59.284;18.022;2023-05-10T09:45:20;4.60;;;2.97;;
12141;SDS011;6134;59.284;18.022;2023-05-10T09:47:49;6.15;;;2.80;;
12141;SDS011;6134;59.284;18.022;2023-05-10T09:50:18;4.03;;;2.75;;
12141;SDS011;6134;59.284;18.022;2023-05-10T09:52:48;7.68;;;3.55;;
12141;SDS011;6134;59.284;18.022;2023-05-10T09:55:19;4.38;;;3.28;;
12141;SDS011;6134;59.284;18.022;2023-05-10T09:57:48;6.50;;;3.15;;
12141;SDS011;6134;59.284;18.022;2023-05-10T10:00:18;5.68;;;2.70;;
12141;SDS011;6134;59.284;18.022;2023-05-10T10:02:48;3.70;;;2.90;;
12141;SDS011;6134;59.284;18.022;2023-05-10T10:05:17;2.97;;;2.55;;
12141;SDS011;6134;59.284;18.022;2023-05-10T10:07:46;6.22;;;3.22;;
12141;SDS011;6134;59.284;18.022;2023-05-10T10:10:16;4.47;;;2.80;;
12141;SDS011;6134;59.284;18.022;2023-05-10T10:12:47;2.47;;;2.13;;
12141;SDS011;6134;59.284;18.022;2023-05-10T10:15:16;4.30;;;2.70;;
12141;SDS011;6134;59.284;18.022;2023-05-10T10:17:45;4.53;;;2.65;;
12141;SDS011;6134;59.284;18.022;2023-05-10T10:20:14;3.35;;;2.70;;
12141;SDS011;6134;59.284;18.022;2023-05-10T10:22:44;3.35;;;3.00;;
12141;SDS011;6134;59.284;18.022;2023-05-10T10:25:15;4.32;;;3.35;;
12141;SDS011;6134;59.284;18.022;2023-05-10T10:27:45;5.95;;;2.50;;
12141;SDS011;6134;59.284;18.022;2023-05-10T10:30:21;3.00;;;2.80;;
12141;SDS011;6134;59.284;18.022;2023-05-10T10:33:08;4.40;;;3.38;;
12141;SDS011;6134;59.284;18.022;2023-05-10T10:35:53;3.30;;;3.00;;
12141;SDS011;6134;59.284;18.022;2023-05-10T10:38:22;4.82;;;2.90;;
12141;SDS011;6134;59.284;18.022;2023-05-10T10:41:01;5.10;;;2.70;;
12141;SDS011;6134;59.284;18.022;2023-05-10T10:43:31;5.68;;;3.05;;
12141;SDS011;6134;59.284;18.022;2023-05-10T10:46:13;3.85;;;2.83;;
12141;SDS011;6134;59.284;18.022;2023-05-10T10:48:47;4.47;;;3.08;;
12141;SDS011;6134;59.284;18.022;2023-05-10T10:51:16;6.03;;;2.92;;
12141;SDS011;6134;59.284;18.022;2023-05-10T10:53:44;3.45;;;2.88;;
12141;SDS011;6134;59.284;18.022;2023-05-10T10:56:16;5.70;;;2.58;;
12141;SDS011;6134;59.284;18.022;2023-05-10T10:58:51;4.90;;;2.58;;
12141;SDS011;6134;59.284;18.022;2023-05-10T11:01:21;6.90;;;2.90;;
12141;SDS011;6134;59.284;18.022;2023-05-10T11:06:40;6.85;;;3.00;;
12141;SDS011;6134;59.284;18.022;2023-05-10T11:09:09;5.03;;;2.60;;
12141;SDS011;6134;59.284;18.022;2023-05-10T11:11:48;3.10;;;2.72;;
12141;SDS011;6134;59.284;18.022;2023-05-10T11:14:19;5.05;;;2.85;;
12141;SDS011;6134;59.284;18.022;2023-05-10T11:16:50;2.90;;;2.63;;
12141;SDS011;6134;59.284;18.022;2023-05-10T11:19:19;7.13;;;3.15;;
12141;SDS011;6134;59.284;18.022;2023-05-10T11:21:48;2.75;;;2.55;;
12141;SDS011;6134;59.284;18.022;2023-05-10T11:24:17;5.40;;;3.00;;
12141;SDS011;6134;59.284;18.022;2023-05-10T11:26:49;4.75;;;3.20;;
12141;SDS011;6134;59.284;18.022;2023-05-10T11:29:18;8.93;;;2.72;;
12141;SDS011;6134;59.284;18.022;2023-05-10T11:31:46;4.05;;;2.50;;
12141;SDS011;6134;59.284;18.022;2023-05-10T11:34:24;4.03;;;2.58;;
12141;SDS011;6134;59.284;18.022;2023-05-10T11:36:53;7.22;;;3.03;;
12141;SDS011;6134;59.284;18.022;2023-05-10T11:39:25;4.20;;;2.60;;
12141;SDS011;6134;59.284;18.022;2023-05-10T11:41:55;3.42;;;2.60;;
12141;SDS011;6134;59.284;18.022;2023-05-10T11:44:24;3.60;;;2.60;;
12141;SDS011;6134;59.284;18.022;2023-05-10T11:46:58;8.57;;;3.10;;
12141;SDS011;6134;59.284;18.022;2023-05-10T11:49:28;3.83;;;2.78;;
12141;SDS011;6134;59.284;18.022;2023-05-10T11:52:03;5.68;;;2.72;;
12141;SDS011;6134;59.284;18.022;2023-05-10T11:54:32;4.70;;;2.50;;
12141;SDS011;6134;59.284;18.022;2023-05-10T11:57:02;8.32;;;3.25;;
12141;SDS011;6134;59.284;18.022;2023-05-10T11:59:31;5.72;;;2.92;;
12141;SDS011;6134;59.284;18.022;2023-05-10T12:02:00;3.47;;;3.05;;
12141;SDS011;6134;59.284;18.022;2023-05-10T12:04:31;6.40;;;3.45;;
12141;SDS011;6134;59.284;18.022;2023-05-10T12:07:00;3.40;;;2.70;;
12141;SDS011;6134;59.284;18.022;2023-05-10T12:09:29;5.05;;;2.85;;
12141;SDS011;6134;59.284;18.022;2023-05-10T12:12:09;3.08;;;2.45;;
12141;SDS011;6134;59.284;18.022;2023-05-10T12:14:38;5.38;;;3.08;;
12141;SDS011;6134;59.284;18.022;2023-05-10T12:17:11;7.90;;;2.88;;
12141;SDS011;6134;59.284;18.022;2023-05-10T12:19:41;6.93;;;2.80;;
12141;SDS011;6134;59.284;18.022;2023-05-10T12:22:10;3.33;;;2.50;;
12141;SDS011;6134;59.284;18.022;2023-05-10T12:24:39;3.53;;;2.47;;
12141;SDS011;6134;59.284;18.022;2023-05-10T12:27:08;3.72;;;2.65;;
12141;SDS011;6134;59.284;18.022;2023-05-10T12:29:56;2.92;;;2.60;;
12141;SDS011;6134;59.284;18.022;2023-05-10T12:32:37;3.80;;;2.75;;
12141;SDS011;6134;59.284;18.022;2023-05-10T12:35:07;4.25;;;2.78;;
12141;SDS011;6134;59.284;18.022;2023-05-10T12:37:36;12.85;;;3.33;;
12141;SDS011;6134;59.284;18.022;2023-05-10T12:40:06;4.95;;;2.80;;
12141;SDS011;6134;59.284;18.022;2023-05-10T12:42:36;4.10;;;2.38;;
12141;SDS011;6134;59.284;18.022;2023-05-10T12:45:05;3.42;;;2.63;;
12141;SDS011;6134;59.284;18.022;2023-05-10T12:47:34;4.68;;;2.90;;
12141;SDS011;6134;59.284;18.022;2023-05-10T12:50:05;8.45;;;2.35;;
12141;SDS011;6134;59.284;18.022;2023-05-10T12:52:36;3.40;;;2.58;;
12141;SDS011;6134;59.284;18.022;2023-05-10T12:55:04;4.70;;;2.38;;
12141;SDS011;6134;59.284;18.022;2023-05-10T12:57:33;2.95;;;2.47;;
12141;SDS011;6134;59.284;18.022;2023-05-10T13:00:02;6.20;;;2.88;;
12141;SDS011;6134;59.284;18.022;2023-05-10T13:02:31;3.65;;;2.50;;
12141;SDS011;6134;59.284;18.022;2023-05-10T13:05:00;4.93;;;2.35;;
12141;SDS011;6134;59.284;18.022;2023-05-10T13:07:29;3.63;;;2.65;;
12141;SDS011;6134;59.284;18.022;2023-05-10T13:10:00;8.38;;;2.58;;
12141;SDS011;6134;59.284;18.022;2023-05-10T13:12:29;3.33;;;2.33;;
12141;SDS011;6134;59.284;18.022;2023-05-10T13:14:57;5.20;;;2.70;;
12141;SDS011;6134;59.284;18.022;2023-05-10T13:17:26;4.45;;;2.90;;
12141;SDS011;6134;59.284;18.022;2023-05-10T13:19:57;5.70;;;2.47;;
12141;SDS011;6134;59.284;18.022;2023-05-10T13:22:26;5.05;;;2.53;;
12141;SDS011;6134;59.284;18.022;2023-05-10T13:25:07;4.47;;;2.80;;
12141;SDS011;6134;59.284;18.022;2023-05-10T13:27:37;4.10;;;2.47;;
12141;SDS011;6134;59.284;18.022;2023-05-10T13:30:06;3.03;;;2.67;;
12141;SDS011;6134;59.284;18.022;2023-05-10T13:32:35;3.45;;;2.47;;
12141;SDS011;6134;59.284;18.022;2023-05-10T13:35:04;4.78;;;2.70;;
12141;SDS011;6134;59.284;18.022;2023-05-10T13:37:33;7.20;;;2.50;;
12141;SDS011;6134;59.284;18.022;2023-05-10T13:40:04;3.75;;;2.50;;
12141;SDS011;6134;59.284;18.022;2023-05-10T13:42:34;6.55;;;2.38;;
12141;SDS011;6134;59.284;18.022;2023-05-10T13:45:04;2.75;;;2.45;;
12141;SDS011;6134;59.284;18.022;2023-05-10T13:47:33;3.75;;;2.20;;
12141;SDS011;6134;59.284;18.022;2023-05-10T13:50:02;5.10;;;2.50;;
12141;SDS011;6134;59.284;18.022;2023-05-10T13:52:31;14.30;;;3.38;;
12141;SDS011;6134;59.284;18.022;2023-05-10T13:55:00;3.63;;;2.40;;
12141;SDS011;6134;59.284;18.022;2023-05-10T13:57:29;4.32;;;2.38;;
12141;SDS011;6134;59.284;18.022;2023-05-10T13:59:59;4.47;;;2.30;;
12141;SDS011;6134;59.284;18.022;2023-05-10T14:02:33;3.10;;;2.30;;
12141;SDS011;6134;59.284;18.022;2023-05-10T14:05:02;5.07;;;2.60;;
12141;SDS011;6134;59.284;18.022;2023-05-10T14:07:31;4.47;;;2.20;;
12141;SDS011;6134;59.284;18.022;2023-05-10T14:10:00;5.43;;;2.40;;
12141;SDS011;6134;59.284;18.022;2023-05-10T14:12:29;3.90;;;2.40;;
12141;SDS011;6134;59.284;18.022;2023-05-10T14:14:59;3.13;;;2.42;;
12141;SDS011;6134;59.284;18.022;2023-05-10T14:17:28;5.72;;;2.60;;
12141;SDS011;6134;59.284;18.022;2023-05-10T14:19:57;4.30;;;2.30;;
12141;SDS011;6134;59.284;18.022;2023-05-10T14:22:26;2.60;;;2.33;;
12141;SDS011;6134;59.284;18.022;2023-05-10T14:24:55;5.95;;;2.10;;
12141;SDS011;6134;59.284;18.022;2023-05-10T14:27:23;5.30;;;2.50;;
12141;SDS011;6134;59.284;18.022;2023-05-10T14:29:52;4.07;;;2.25;;
12141;SDS011;6134;59.284;18.022;2023-05-10T14:32:23;4.18;;;2.63;;
12141;SDS011;6134;59.284;18.022;2023-05-10T14:34:53;2.40;;;2.20;;
12141;SDS011;6134;59.284;18.022;2023-05-10T14:37:22;3.25;;;2.15;;
12141;SDS011;6134;59.284;18.022;2023-05-10T14:39:51;2.85;;;2.40;;
12141;SDS011;6134;59.284;18.022;2023-05-10T14:42:20;2.92;;;1.90;;
12141;SDS011;6134;59.284;18.022;2023-05-10T14:44:49;2.63;;;2.00;;
12141;SDS011;6134;59.284;18.022;2023-05-10T14:47:17;3.10;;;2.20;;
12141;SDS011;6134;59.284;18.022;2023-05-10T14:49:47;3.65;;;2.20;;
12141;SDS011;6134;59.284;18.022;2023-05-10T14:52:16;4.93;;;2.40;;
12141;SDS011;6134;59.284;18.022;2023-05-10T14:54:45;2.80;;;2.03;;
12141;SDS011;6134;59.284;18.022;2023-05-10T14:57:14;2.70;;;2.22;;
12141;SDS011;6134;59.284;18.022;2023-05-10T14:59:43;4.75;;;2.30;;
12141;SDS011;6134;59.284;18.022;2023-05-10T15:02:12;4.68;;;2.40;;
12141;SDS011;6134;59.284;18.022;2023-05-10T15:04:41;4.80;;;2.20;;
12141;SDS011;6134;59.284;18.022;2023-05-10T15:07:11;5.55;;;2.17;;